Time,TemperatureF,DewpointF,PressureIn,WindDirection,WindDirectionDegrees,WindSpeedMPH,WindSpeedGustMPH,Humidity,HourlyPrecipIn,Conditions,Clouds,dailyrainin,SoftwareType,DateUTC
2013-10-01 00:04:00,50.4,49.0,29.98,East,96,0.0,2.0,96,0.00,,,0.01,weatherlink.com 1.10,2013-10-01 04:04:00,
2013-10-01 00:19:00,50.2,49.0,29.98,East,96,0.0,2.0,96,0.00,,,0.01,weatherlink.com 1.10,2013-10-01 04:19:00,
2013-10-01 00:34:00,49.9,49.0,29.98,East,96,0.0,0.0,96,0.00,,,0.01,weatherlink.com 1.10,2013-10-01 04:34:00,
2013-10-01 00:49:00,49.7,49.0,29.98,East,96,0.0,0.0,96,0.00,,,0.01,weatherlink.com 1.10,2013-10-01 04:49:00,
2013-10-01 01:04:00,49.6,49.0,29.98,East,96,0.0,0.0,96,0.00,,,0.01,weatherlink.com 1.10,2013-10-01 05:04:00,
2013-10-01 01:19:00,49.5,48.0,29.99,East,96,0.0,0.0,96,0.00,,,0.01,weatherlink.com 1.10,2013-10-01 05:19:00,
2013-10-01 01:34:00,49.4,49.0,29.99,East,96,0.0,0.0,97,0.00,,,0.01,weatherlink.com 1.10,2013-10-01 05:34:00,
2013-10-01 01:49:00,49.3,48.0,29.99,East,96,0.0,0.0,96,0.00,,,0.01,weatherlink.com 1.10,2013-10-01 05:49:00,
2013-10-01 02:04:00,49.0,48.0,29.99,East,96,0.0,0.0,97,0.00,,,0.01,weatherlink.com 1.10,2013-10-01 06:04:00,
2013-10-01 02:19:00,48.9,48.0,29.98,East,96,0.0,0.0,97,0.00,,,0.01,weatherlink.com 1.10,2013-10-01 06:19:00,
2013-10-01 02:34:00,49.1,48.0,29.98,East,96,0.0,0.0,97,0.00,,,0.01,weatherlink.com 1.10,2013-10-01 06:34:00,
2013-10-01 02:49:00,49.5,49.0,29.98,East,96,0.0,0.0,97,0.00,,,0.01,weatherlink.com 1.10,2013-10-01 06:49:00,
2013-10-01 03:04:00,49.8,49.0,29.98,East,96,0.0,0.0,97,0.00,,,0.01,weatherlink.com 1.10,2013-10-01 07:04:00,
2013-10-01 03:19:00,49.8,49.0,29.98,East,96,0.0,0.0,97,0.00,,,0.01,weatherlink.com 1.10,2013-10-01 07:19:00,
2013-10-01 03:34:00,49.8,49.0,29.97,East,96,0.0,0.0,97,0.00,,,0.01,weatherlink.com 1.10,2013-10-01 07:34:00,
2013-10-01 03:49:00,49.9,49.0,29.97,East,96,0.0,0.0,97,0.00,,,0.01,weatherlink.com 1.10,2013-10-01 07:49:00,
2013-10-01 04:04:00,49.3,49.0,29.98,East,96,0.0,1.0,97,0.00,,,0.01,weatherlink.com 1.10,2013-10-01 08:04:00,
2013-10-01 04:19:00,48.9,48.0,29.97,East,96,0.0,1.0,97,0.00,,,0.01,weatherlink.com 1.10,2013-10-01 08:19:00,
2013-10-01 04:34:00,48.6,48.0,29.97,East,96,0.0,1.0,97,0.00,,,0.01,weatherlink.com 1.10,2013-10-01 08:34:00,
2013-10-01 04:49:00,48.6,48.0,29.97,East,96,0.0,0.0,97,0.00,,,0.01,weatherlink.com 1.10,2013-10-01 08:49:00,
2013-10-01 05:04:00,48.5,48.0,29.98,East,96,0.0,0.0,97,0.00,,,0.01,weatherlink.com 1.10,2013-10-01 09:04:00,
2013-10-01 05:19:00,48.5,48.0,29.98,East,96,0.0,0.0,97,0.00,,,0.01,weatherlink.com 1.10,2013-10-01 09:19:00,
2013-10-01 05:34:00,48.3,48.0,29.98,East,96,0.0,1.0,97,0.00,,,0.01,weatherlink.com 1.10,2013-10-01 09:34:00,
2013-10-01 05:49:00,48.2,47.0,29.99,East,96,0.0,1.0,97,0.01,,,0.02,weatherlink.com 1.10,2013-10-01 09:49:00,
2013-10-01 06:04:00,48.2,47.0,29.99,East,96,0.0,1.0,97,0.01,,,0.02,weatherlink.com 1.10,2013-10-01 10:04:00,
2013-10-01 06:19:00,48.0,47.0,29.99,East,96,0.0,0.0,97,0.01,,,0.02,weatherlink.com 1.10,2013-10-01 10:19:00,
2013-10-01 06:34:00,47.7,47.0,30.00,East,96,0.0,0.0,97,0.01,,,0.00,weatherlink.com 1.10,2013-10-01 10:34:00,
2013-10-01 06:49:00,47.7,47.0,30.00,East,96,0.0,0.0,97,0.00,,,0.00,weatherlink.com 1.10,2013-10-01 10:49:00,
2013-10-01 07:04:00,47.5,47.0,30.00,East,96,0.0,0.0,97,0.00,,,0.00,weatherlink.com 1.10,2013-10-01 11:04:00,
2013-10-01 07:19:00,47.6,47.0,30.00,NW,304,0.0,1.0,97,0.00,,,0.00,weatherlink.com 1.10,2013-10-01 11:19:00,
2013-10-01 07:34:00,47.5,47.0,30.01,NW,304,0.0,1.0,97,0.00,,,0.00,weatherlink.com 1.10,2013-10-01 11:34:00,
2013-10-01 07:49:00,48.0,48.0,30.00,East,92,0.0,2.0,98,0.00,,,0.00,weatherlink.com 1.10,2013-10-01 11:49:00,
2013-10-01 08:05:00,49.3,49.0,30.01,East,91,0.0,1.0,98,0.00,,,0.00,weatherlink.com 1.10,2013-10-01 12:05:00,
2013-10-01 08:19:00,50.0,50.0,30.01,SSW,196,0.0,2.0,98,0.00,,,0.00,weatherlink.com 1.10,2013-10-01 12:19:00,
2013-10-01 08:35:00,50.5,50.0,30.01,SSW,196,0.0,1.0,98,0.00,,,0.00,weatherlink.com 1.10,2013-10-01 12:35:00,
2013-10-01 08:50:00,51.8,51.0,30.01,SSW,196,0.0,1.0,98,0.00,,,0.00,weatherlink.com 1.10,2013-10-01 12:50:00,
2013-10-01 09:05:00,53.4,53.0,30.01,SSW,198,0.0,1.0,98,0.00,,,0.00,weatherlink.com 1.10,2013-10-01 13:05:00,
2013-10-01 09:20:00,54.4,54.0,30.01,West,276,2.0,2.0,99,0.00,,,0.00,weatherlink.com 1.10,2013-10-01 13:20:00,
2013-10-01 09:35:00,55.4,55.0,30.00,SW,226,0.0,3.0,98,0.00,,,0.00,weatherlink.com 1.10,2013-10-01 13:35:00,
2013-10-01 09:50:00,57.0,57.0,30.01,SW,232,0.0,3.0,98,0.00,,,0.00,weatherlink.com 1.10,2013-10-01 13:50:00,
2013-10-01 10:05:00,59.0,57.0,30.00,SW,234,3.0,4.0,94,0.00,,,0.00,weatherlink.com 1.10,2013-10-01 14:05:00,
2013-10-01 10:20:00,61.2,57.0,30.00,SW,234,3.0,5.0,87,0.00,,,0.00,weatherlink.com 1.10,2013-10-01 14:20:00,
2013-10-01 10:35:00,63.6,58.0,30.00,WSW,251,0.0,4.0,83,0.00,,,0.00,weatherlink.com 1.10,2013-10-01 14:35:00,
2013-10-01 10:50:00,65.2,59.0,30.00,NW,305,0.0,2.0,79,0.00,,,0.00,weatherlink.com 1.10,2013-10-01 14:50:00,
2013-10-01 11:05:00,66.7,59.0,29.99,WSW,254,0.0,3.0,75,0.00,,,0.00,weatherlink.com 1.10,2013-10-01 15:05:00,
2013-10-01 11:20:00,67.7,60.0,29.99,SW,227,1.0,3.0,75,0.00,,,0.00,weatherlink.com 1.10,2013-10-01 15:20:00,
2013-10-01 11:35:00,68.8,60.0,29.99,SW,225,0.0,4.0,74,0.00,,,0.00,weatherlink.com 1.10,2013-10-01 15:35:00,
2013-10-01 11:50:00,69.5,60.0,29.98,SW,223,5.0,6.0,72,0.00,,,0.00,weatherlink.com 1.10,2013-10-01 15:50:00,
2013-10-01 12:05:00,70.1,60.0,29.98,SSW,195,1.0,4.0,71,0.00,,,0.00,weatherlink.com 1.10,2013-10-01 16:05:00,
2013-10-01 12:20:00,72.1,61.0,29.97,WSW,246,5.0,5.0,69,0.00,,,0.00,weatherlink.com 1.10,2013-10-01 16:20:00,
2013-10-01 12:35:00,73.4,62.0,29.97,WNW,286,5.0,7.0,67,0.00,,,0.00,weatherlink.com 1.10,2013-10-01 16:35:00,
2013-10-01 13:06:00,76.6,63.0,29.95,SSW,205,0.0,5.0,62,0.00,,,0.00,weatherlink.com 1.10,2013-10-01 17:06:00,
2013-10-01 13:21:00,77.5,62.0,29.95,SSW,208,1.0,6.0,60,0.00,,,0.00,weatherlink.com 1.10,2013-10-01 17:21:00,
2013-10-01 13:36:00,79.3,63.0,29.94,West,260,3.0,6.0,57,0.00,,,0.00,weatherlink.com 1.10,2013-10-01 17:36:00,
2013-10-01 13:51:00,79.3,62.0,29.93,WSW,250,6.0,9.0,56,0.00,,,0.00,weatherlink.com 1.10,2013-10-01 17:51:00,
2013-10-01 14:06:00,78.6,62.0,29.92,SSW,192,3.0,6.0,56,0.00,,,0.00,weatherlink.com 1.10,2013-10-01 18:06:00,
2013-10-01 14:21:00,78.2,62.0,29.92,SW,223,0.0,5.0,58,0.00,,,0.00,weatherlink.com 1.10,2013-10-01 18:21:00,
2013-10-01 14:36:00,77.2,63.0,29.92,NNW,348,0.0,2.0,61,0.00,,,0.00,weatherlink.com 1.10,2013-10-01 18:36:00,
2013-10-01 14:51:00,76.1,64.0,29.92,West,281,0.0,2.0,66,0.00,,,0.00,weatherlink.com 1.10,2013-10-01 18:51:00,
2013-10-01 15:06:00,75.4,65.0,29.91,WNW,282,0.0,1.0,69,0.00,,,0.00,weatherlink.com 1.10,2013-10-01 19:06:00,
2013-10-01 15:21:00,74.4,66.0,29.90,NW,317,0.0,0.0,74,0.00,,,0.00,weatherlink.com 1.10,2013-10-01 19:21:00,
2013-10-01 15:36:00,73.5,66.0,29.90,North,10,0.0,0.0,77,0.00,,,0.00,weatherlink.com 1.10,2013-10-01 19:36:00,
2013-10-01 15:51:00,72.8,66.0,29.90,ENE,61,0.0,1.0,78,0.00,,,0.00,weatherlink.com 1.10,2013-10-01 19:51:00,
2013-10-01 16:06:00,72.8,64.0,29.89,NNE,15,0.0,1.0,74,0.00,,,0.00,weatherlink.com 1.10,2013-10-01 20:06:00,
2013-10-01 16:36:00,77.4,59.0,29.89,WSW,244,4.0,12.0,53,0.00,,,0.00,weatherlink.com 1.10,2013-10-01 20:36:00,
2013-10-01 16:51:00,78.3,59.0,29.89,West,266,2.0,11.0,52,0.00,,,0.00,weatherlink.com 1.10,2013-10-01 20:51:00,
2013-10-01 17:06:00,78.1,59.0,29.89,WSW,252,5.0,8.0,52,0.00,,,0.00,weatherlink.com 1.10,2013-10-01 21:06:00,
2013-10-01 17:21:00,77.7,60.0,29.89,NNE,24,4.0,11.0,54,0.00,,,0.00,weatherlink.com 1.10,2013-10-01 21:21:00,
2013-10-01 17:36:00,77.1,59.0,29.90,WSW,257,0.0,5.0,54,0.00,,,0.00,weatherlink.com 1.10,2013-10-01 21:36:00,
2013-10-01 17:51:00,76.4,59.0,29.90,West,269,0.0,5.0,56,0.00,,,0.00,weatherlink.com 1.10,2013-10-01 21:51:00,
2013-10-01 18:06:00,75.5,61.0,29.90,WSW,245,0.0,3.0,60,0.00,,,0.00,weatherlink.com 1.10,2013-10-01 22:06:00,
2013-10-01 18:21:00,72.7,62.0,29.90,WSW,241,1.0,1.0,68,0.00,,,0.00,weatherlink.com 1.10,2013-10-01 22:21:00,
2013-10-01 18:36:00,69.6,61.0,29.90,WSW,241,0.0,0.0,74,0.00,,,0.00,weatherlink.com 1.10,2013-10-01 22:36:00,
2013-10-01 18:51:00,67.2,60.0,29.91,SW,223,0.0,2.0,77,0.00,,,0.00,weatherlink.com 1.10,2013-10-01 22:51:00,
2013-10-01 19:06:00,65.2,59.0,29.91,SSW,207,0.0,1.0,81,0.00,,,0.00,weatherlink.com 1.10,2013-10-01 23:06:00,
2013-10-01 19:21:00,63.6,58.0,29.91,SE,124,1.0,1.0,83,0.00,,,0.00,weatherlink.com 1.10,2013-10-01 23:21:00,
2013-10-01 19:36:00,62.5,58.0,29.92,SE,124,0.0,2.0,84,0.00,,,0.00,weatherlink.com 1.10,2013-10-01 23:36:00,
2013-10-01 19:51:00,61.7,58.0,29.92,SE,124,0.0,2.0,86,0.00,,,0.00,weatherlink.com 1.10,2013-10-01 23:51:00,
2013-10-01 20:06:00,60.9,57.0,29.93,SE,124,0.0,2.0,87,0.00,,,0.00,weatherlink.com 1.10,2013-10-02 00:06:00,
2013-10-01 20:21:00,60.1,57.0,29.93,ESE,107,1.0,2.0,88,0.00,,,0.00,weatherlink.com 1.10,2013-10-02 00:21:00,
2013-10-01 20:36:00,59.4,57.0,29.93,ESE,107,1.0,2.0,90,0.00,,,0.00,weatherlink.com 1.10,2013-10-02 00:36:00,
2013-10-01 20:51:00,59.0,57.0,29.93,East,96,1.0,2.0,92,0.00,,,0.00,weatherlink.com 1.10,2013-10-02 00:51:00,
2013-10-01 21:06:00,58.4,56.0,29.93,East,96,2.0,2.0,92,0.00,,,0.00,weatherlink.com 1.10,2013-10-02 01:06:00,
2013-10-01 21:21:00,57.8,56.0,29.94,East,96,1.0,2.0,93,0.00,,,0.00,weatherlink.com 1.10,2013-10-02 01:21:00,
2013-10-01 21:36:00,57.5,56.0,29.94,East,94,1.0,3.0,93,0.00,,,0.00,weatherlink.com 1.10,2013-10-02 01:36:00,
2013-10-01 21:51:00,57.0,55.0,29.94,East,92,1.0,3.0,94,0.00,,,0.00,weatherlink.com 1.10,2013-10-02 01:51:00,
2013-10-01 22:06:00,56.7,55.0,29.94,East,92,0.0,2.0,95,0.00,,,0.00,weatherlink.com 1.10,2013-10-02 02:06:00,
2013-10-01 22:21:00,56.3,55.0,29.94,East,92,2.0,2.0,95,0.00,,,0.00,weatherlink.com 1.10,2013-10-02 02:21:00,
2013-10-01 22:36:00,56.0,55.0,29.94,East,94,2.0,2.0,95,0.00,,,0.00,weatherlink.com 1.10,2013-10-02 02:36:00,
2013-10-01 22:51:00,55.7,54.0,29.94,East,95,0.0,2.0,95,0.00,,,0.00,weatherlink.com 1.10,2013-10-02 02:51:00,
2013-10-01 23:06:00,55.4,54.0,29.94,East,94,0.0,2.0,96,0.00,,,0.00,weatherlink.com 1.10,2013-10-02 03:06:00,
2013-10-01 23:21:00,55.2,54.0,29.94,East,94,0.0,1.0,96,0.00,,,0.00,weatherlink.com 1.10,2013-10-02 03:21:00,
2013-10-01 23:36:00,55.0,54.0,29.94,East,94,0.0,1.0,96,0.00,,,0.00,weatherlink.com 1.10,2013-10-02 03:36:00,
2013-10-01 23:51:00,54.8,54.0,29.94,East,95,1.0,1.0,96,0.00,,,0.00,weatherlink.com 1.10,2013-10-02 03:51:00,